createdAt,value
2022-10-29T00:03:08.609Z,30.3
2022-10-29T00:08:08.423Z,31.0
2022-10-29T00:13:08.461Z,32.3
2022-10-29T00:23:08.531Z,32.0
2022-10-29T00:28:08.337Z,31.1
2022-10-29T00:33:08.490Z,30.4
2022-10-29T00:48:08.308Z,28.0
2022-10-29T00:53:08.637Z,28.6
2022-10-29T00:58:08.336Z,28.1
2022-10-29T01:08:08.293Z,26.0
2022-10-29T01:13:08.357Z,27.4
2022-10-29T01:18:08.436Z,26.4
2022-10-29T01:28:08.551Z,26.2
2022-10-29T01:33:08.239Z,26.0
2022-10-29T01:38:08.262Z,26.1
2022-10-29T01:43:08.262Z,25.6
2022-10-29T01:48:08.484Z,26.7
2022-10-29T01:53:08.237Z,26.5
2022-10-29T01:58:08.197Z,26.0
2022-10-29T02:03:08.222Z,25.9
2022-10-29T02:08:08.182Z,26.3
2022-10-29T02:18:08.184Z,25.2
2022-10-29T02:23:08.235Z,25.7
2022-10-29T02:28:08.207Z,23.2
2022-10-29T02:33:08.126Z,24.4
2022-10-29T02:38:08.136Z,23.9
2022-10-29T02:43:08.149Z,24.6
2022-10-29T02:48:08.138Z,23.7
2022-10-29T02:53:08.111Z,24.3
2022-10-29T02:58:08.155Z,23.9
2022-10-29T03:03:08.110Z,23.8
2022-10-29T03:08:08.327Z,23.5
2022-10-29T03:13:08.144Z,23.3
2022-10-29T03:23:08.167Z,22.5
2022-10-29T03:48:07.976Z,24.5
2022-10-29T03:53:08.007Z,26.9
2022-10-29T03:58:07.942Z,22.6
2022-10-29T04:03:08.127Z,22.8
2022-10-29T04:08:07.956Z,24.1
2022-10-29T04:13:07.958Z,22.7
2022-10-29T04:18:07.876Z,23.4
2022-10-29T04:24:48.626Z,20.6
2022-10-29T04:28:42.001Z,19.8
2022-10-29T04:33:08.014Z,19.7
2022-10-29T04:38:08.126Z,19.3
2022-10-29T04:43:08.123Z,18.1
2022-10-29T04:53:07.841Z,16.5
2022-10-29T04:58:08.076Z,18.2
2022-10-29T05:08:07.917Z,17.7
2022-10-29T05:13:07.937Z,15.9
2022-10-29T05:18:07.836Z,17.9
2022-10-29T05:23:07.938Z,16.3
2022-10-29T05:28:07.993Z,17.3
2022-10-29T05:33:07.788Z,18.0
2022-10-29T05:38:07.898Z,17.1
2022-10-29T05:43:07.906Z,19.7
2022-10-29T05:48:08.118Z,18.3
2022-10-29T05:53:07.851Z,18.5
2022-10-29T05:58:07.927Z,18.7
2022-10-29T06:03:07.909Z,19.0
2022-10-29T06:08:07.979Z,18.7
2022-10-29T06:23:07.963Z,36.2
2022-10-29T06:33:07.891Z,36.5
2022-10-29T06:38:11.901Z,36.9
2022-10-29T06:43:07.787Z,36.5
2022-10-29T06:48:07.618Z,35.2
2022-10-29T06:53:07.710Z,30.4
2022-10-29T06:58:07.747Z,26.6
2022-10-29T07:08:07.609Z,24.0
2022-10-29T07:13:07.724Z,22.1
2022-10-29T07:18:07.694Z,21.9
2022-10-29T07:28:07.829Z,21.4
2022-10-29T07:33:12.125Z,20.4
2022-10-29T07:38:10.766Z,21.2
2022-10-29T07:43:07.852Z,18.8
2022-10-29T07:48:07.629Z,17.8
2022-10-29T07:53:07.838Z,19.6
2022-10-29T07:58:07.679Z,19.2
2022-10-29T08:08:08.125Z,17.3
2022-10-29T08:13:07.881Z,16.2
2022-10-29T08:23:07.516Z,15.9
2022-10-29T08:28:07.507Z,15.4
2022-10-29T08:33:07.511Z,12.9
2022-10-29T08:38:07.589Z,15.0
2022-10-29T08:53:24.098Z,12.1
2022-10-29T08:58:07.459Z,12.3
2022-10-29T09:03:07.416Z,10.9
2022-10-29T09:23:07.447Z,9.7
2022-10-29T09:28:07.535Z,9.1
2022-10-29T09:33:07.607Z,9.6
2022-10-29T09:38:07.393Z,8.6
2022-10-29T09:48:07.419Z,9.1
2022-10-29T09:53:07.451Z,8.3
2022-10-29T09:58:07.377Z,9.5
2022-10-29T10:08:07.387Z,8.5
2022-10-29T10:13:07.416Z,8.2
2022-10-29T14:13:07.056Z,8.8
2022-10-29T14:18:07.088Z,9.1
2022-10-29T14:23:07.040Z,8.8
2022-10-29T14:33:07.133Z,9.2
2022-10-29T14:38:10.564Z,11.7
2022-10-29T14:53:07.046Z,11.2
2022-10-29T14:58:06.996Z,12.0
2022-10-29T15:03:07.119Z,14.7
2022-10-29T15:08:07.018Z,19.1
2022-10-29T15:18:07.100Z,17.7
2022-10-29T15:28:07.050Z,16.6
2022-10-29T15:33:06.894Z,15.4
2022-10-29T15:38:07.077Z,17.4
2022-10-29T15:43:07.134Z,17.7
2022-10-29T15:48:07.048Z,19.2
2022-10-29T15:53:06.880Z,19.3
2022-10-29T15:58:07.029Z,24.3
2022-10-29T16:03:06.882Z,26.7
2022-10-29T16:08:06.934Z,22.9
2022-10-29T16:13:06.886Z,23.4
2022-10-29T16:18:06.731Z,24.1
2022-10-29T16:23:06.863Z,32.1
2022-10-29T16:28:06.903Z,27.6
2022-10-29T16:33:06.838Z,34.0
2022-10-29T16:43:06.803Z,29.0
2022-10-29T16:58:06.697Z,34.0
2022-10-29T17:03:11.100Z,35.6
2022-10-29T17:08:06.782Z,41.3
2022-10-29T17:13:06.907Z,40.5
2022-10-29T17:18:06.886Z,35.5
2022-10-29T17:23:07.137Z,35.6
2022-10-29T17:28:06.863Z,36.1
2022-10-29T17:38:06.847Z,37.4
2022-10-29T17:43:06.707Z,36.0
2022-10-29T17:48:06.672Z,33.5
2022-10-29T17:58:06.707Z,35.8
2022-10-29T18:03:07.247Z,37.3
2022-10-29T18:08:06.959Z,42.0
2022-10-29T18:13:06.742Z,39.0
2022-10-29T18:18:06.652Z,41.7
2022-10-29T18:28:06.790Z,50.6
2022-10-29T18:33:06.702Z,46.0
2022-10-29T18:38:07.030Z,42.4
2022-10-29T18:43:06.514Z,45.4
2022-10-29T18:48:06.720Z,42.2
2022-10-29T19:03:07.269Z,37.8
2022-10-29T19:08:07.635Z,33.5
2022-10-29T19:13:06.707Z,34.2
2022-10-29T19:18:06.515Z,37.9
2022-10-29T19:23:06.819Z,40.2
2022-10-29T19:33:08.209Z,35.6
2022-10-29T19:38:06.440Z,35.3
2022-10-29T19:43:06.456Z,34.3
2022-10-29T19:48:06.450Z,36.9
2022-10-29T19:53:06.410Z,38.8
2022-10-29T20:03:06.440Z,35.0
2022-10-29T20:13:06.416Z,32.7
2022-10-29T20:23:06.370Z,29.2
2022-10-29T20:28:06.403Z,28.3
2022-10-29T20:33:06.573Z,31.3
2022-10-29T20:38:06.411Z,32.3
2022-10-29T20:43:06.869Z,33.4
2022-10-29T20:48:06.449Z,34.3
2022-10-29T20:53:06.425Z,33.6
2022-10-29T20:58:06.325Z,30.5
2022-10-29T21:03:06.607Z,31.9
2022-10-29T21:08:06.315Z,32.1
2022-10-29T21:13:06.327Z,33.5
2022-10-29T21:23:06.346Z,6.6
2022-10-29T21:33:06.886Z,31.5
2022-10-29T21:38:06.402Z,34.0
2022-10-29T21:48:06.439Z,29.4
2022-10-29T21:53:06.356Z,27.5
2022-10-29T22:03:06.545Z,27.8
2022-10-29T22:08:06.246Z,27.9
2022-10-29T22:13:09.120Z,28.7
2022-10-29T22:18:06.382Z,30.7
2022-10-29T22:23:06.268Z,30.0
2022-10-29T22:28:06.211Z,31.5
2022-10-29T22:33:06.501Z,32.5
2022-10-29T22:38:06.169Z,33.0
2022-10-29T22:43:06.159Z,31.1
2022-10-29T22:48:06.234Z,30.7
2022-10-29T22:53:06.172Z,29.7
2022-10-29T22:58:06.148Z,31.2
2022-10-29T23:03:06.432Z,31.5
2022-10-29T23:08:06.076Z,31.3
2022-10-29T23:13:06.206Z,39.9
2022-10-29T23:18:06.443Z,33.4
2022-10-29T23:23:06.180Z,30.8
2022-10-29T23:28:06.242Z,30.9
2022-10-29T23:33:06.179Z,31.2
2022-10-29T23:38:06.057Z,31.1
2022-10-29T23:43:06.219Z,30.7
2022-10-29T23:48:06.037Z,30.4
2022-10-29T23:53:06.051Z,31.7
2022-10-29T23:58:06.165Z,31.0
